createdAt,value
2019-04-22T06:45:29.092Z,99.90
2019-04-22T06:48:06.746Z,99.90
2019-04-22T06:50:43.505Z,99.90
2019-04-22T06:53:09.218Z,99.90
2019-04-22T06:55:41.374Z,99.90
2019-04-22T06:58:15.277Z,99.90
2019-04-22T07:03:39.909Z,99.90
2019-04-22T07:05:52.346Z,99.90
2019-04-22T07:08:59.515Z,99.90
2019-04-22T07:10:50.453Z,99.90
2019-04-22T07:13:29.094Z,99.90
2019-04-22T07:16:01.744Z,99.90
2019-04-22T07:18:35.989Z,99.90
2019-04-22T07:21:01.374Z,99.90
2019-04-22T07:26:05.994Z,99.00
2019-04-22T07:28:29.539Z,98.80
2019-04-22T07:31:10.372Z,98.30
2019-04-22T07:33:42.439Z,98.40
2019-04-22T07:38:42.787Z,98.40
2019-04-22T07:41:24.833Z,98.40
2019-04-22T07:44:07.389Z,97.80
2019-04-22T07:46:18.501Z,97.90
2019-04-22T07:51:32.716Z,98.00
2019-04-22T07:53:56.321Z,97.20
2019-04-22T07:56:30.538Z,96.90
2019-04-22T07:59:03.481Z,96.90
2019-04-22T08:01:32.335Z,96.90
2019-04-22T08:04:16.071Z,96.80
2019-04-22T08:06:49.403Z,97.10
2019-04-22T08:09:13.908Z,97.60
2019-04-22T08:14:18.927Z,96.50
2019-04-22T08:16:51.934Z,95.70
2019-04-22T08:19:22.280Z,94.50
2019-04-22T08:21:53.192Z,94.90
2019-04-22T08:24:25.293Z,95.00
2019-04-22T08:26:53.325Z,94.20
2019-04-22T08:31:59.214Z,93.30
2019-04-22T08:34:31.289Z,94.10
2019-04-22T08:39:35.898Z,93.40
2019-04-22T08:42:17.991Z,91.40
2019-04-22T08:45:04.907Z,92.10
2019-04-22T08:47:19.067Z,91.40
2019-04-22T08:50:03.143Z,92.30
2019-04-22T08:52:31.932Z,92.10
2019-04-22T08:55:07.744Z,92.10
2019-04-22T08:57:55.542Z,91.40
2019-04-22T09:00:06.850Z,91.20
2019-04-22T09:02:41.365Z,91.00
2019-04-22T09:05:12.267Z,91.50
2019-04-22T09:08:01.492Z,91.30
2019-04-22T09:10:10.369Z,91.40
2019-04-22T09:13:03.546Z,91.00
2019-04-22T09:15:24.722Z,90.20
2019-04-22T09:20:25.905Z,88.30
2019-04-22T09:23:03.717Z,87.70
2019-04-22T09:25:34.535Z,88.90
2019-04-22T09:28:07.334Z,88.00
2019-04-22T09:30:40.532Z,86.00
2019-04-22T09:33:14.065Z,84.40
2019-04-22T09:36:07.816Z,86.30
2019-04-22T09:41:05.415Z,87.40
2019-04-22T09:43:24.152Z,87.60
2019-04-22T09:45:53.189Z,86.30
2019-04-22T09:48:29.752Z,82.90
2019-04-22T09:51:03.754Z,83.60
2019-04-22T09:53:29.745Z,81.60
2019-04-22T09:56:03.845Z,81.90
2019-04-22T09:58:39.423Z,80.60
2019-04-22T10:01:32.382Z,80.00
2019-04-22T10:04:18.573Z,79.30
2019-04-22T10:06:40.691Z,78.20
2019-04-22T10:09:34.397Z,80.70
2019-04-22T10:11:50.815Z,79.50
2019-04-22T10:14:29.063Z,78.10
2019-04-22T10:16:53.896Z,79.20
2019-04-22T10:19:30.010Z,79.00
2019-04-22T10:22:10.455Z,79.00
2019-04-22T10:24:39.114Z,76.10
2019-04-22T10:27:12.934Z,75.30
2019-04-22T10:32:33.584Z,76.70
2019-04-22T10:35:04.376Z,75.00
2019-04-22T10:37:34.733Z,74.10
2019-04-22T10:40:13.854Z,77.50
2019-04-22T10:42:51.448Z,75.50
2019-04-22T10:45:26.416Z,74.40
2019-04-22T10:47:58.261Z,75.80
2019-04-22T10:50:43.018Z,74.30
2019-04-22T10:53:15.446Z,71.90
2019-04-22T10:55:51.013Z,70.70
2019-04-22T10:58:23.004Z,69.90
2019-04-22T11:00:58.155Z,70.40
2019-04-22T11:03:28.914Z,67.70
2019-04-22T11:05:59.545Z,69.60
2019-04-22T11:08:40.413Z,68.30
2019-04-22T11:11:19.057Z,66.70
2019-04-22T11:13:37.898Z,61.20
2019-04-22T11:16:09.514Z,59.80
2019-04-22T11:18:41.343Z,58.70
2019-04-22T11:21:12.047Z,58.00
2019-04-22T11:23:42.710Z,59.40
2019-04-22T11:26:13.162Z,56.90
2019-04-22T11:28:43.516Z,52.20
2019-04-22T11:31:14.685Z,50.60
2019-04-22T11:33:44.931Z,51.20
2019-04-22T11:36:15.808Z,53.20
2019-04-22T11:38:55.289Z,55.00
2019-04-22T11:41:19.480Z,56.80
2019-04-22T11:43:51.290Z,56.70
2019-04-22T11:46:23.093Z,57.70
2019-04-22T11:48:54.133Z,58.50
2019-04-22T11:51:24.686Z,58.90
2019-04-22T11:53:54.890Z,57.30
2019-04-22T11:56:25.435Z,54.30
2019-04-22T11:58:57.120Z,52.70
2019-04-22T12:01:28.738Z,54.00
2019-04-22T12:04:01.969Z,55.60
2019-04-22T12:06:33.782Z,56.00
2019-04-22T12:09:06.147Z,55.30
2019-04-22T12:11:36.666Z,54.80
2019-04-22T12:14:07.075Z,54.90
2019-04-22T12:16:37.292Z,55.60
2019-04-22T12:19:09.094Z,56.60
2019-04-22T12:21:39.507Z,57.40
2019-04-22T12:24:10.935Z,57.70
2019-04-22T12:26:42.387Z,58.10
2019-04-22T12:29:13.194Z,58.60
2019-04-22T12:31:43.590Z,59.30
2019-04-22T12:34:15.541Z,59.80
2019-04-22T14:17:52.706Z,52.20
2019-04-22T14:20:22.424Z,52.70
2019-04-22T14:22:52.789Z,53.70
2019-04-22T14:25:24.855Z,54.80
2019-04-22T14:28:01.918Z,55.60
2019-04-22T14:30:24.715Z,56.30
2019-04-22T14:32:58.028Z,56.60
2019-04-22T14:37:58.233Z,57.00
2019-04-22T14:40:30.357Z,57.40
2019-04-22T14:44:15.607Z,57.80
2019-04-22T14:46:04.389Z,58.00
2019-04-22T14:48:28.172Z,57.80
2019-04-22T14:50:51.837Z,57.90
2019-04-22T14:53:21.398Z,56.10
2019-04-22T14:55:38.220Z,54.60
2019-04-22T14:58:07.109Z,55.00
2019-04-22T15:00:35.946Z,54.70
2019-04-22T15:03:05.991Z,53.40
2019-04-22T15:08:07.017Z,53.40
2019-04-22T15:10:39.907Z,53.50
2019-04-22T15:13:09.408Z,53.30
2019-04-22T15:16:02.699Z,52.90
2019-04-22T15:21:16.957Z,53.50
2019-04-22T15:26:16.738Z,52.80
2019-04-22T15:28:47.405Z,52.70
2019-04-22T15:31:15.331Z,52.80
2019-04-22T15:33:48.783Z,51.90
2019-04-22T15:38:47.173Z,51.10
2019-04-22T15:41:18.762Z,50.90
2019-04-22T15:43:47.756Z,50.80
2019-04-22T15:46:18.402Z,49.70
2019-04-22T16:17:46.607Z,50.10
2019-04-22T16:20:17.426Z,48.80
2019-04-22T16:23:07.743Z,48.80
2019-04-22T16:28:39.723Z,49.40
2019-04-22T16:31:11.297Z,50.30
2019-04-22T16:33:45.398Z,51.00
2019-04-22T16:36:16.762Z,52.10
2019-04-22T16:38:47.188Z,53.40
2019-04-22T16:41:18.827Z,54.50
2019-04-22T16:43:50.807Z,55.40
2019-04-22T16:46:30.012Z,56.10
2019-04-22T16:49:03.333Z,56.70
2019-04-22T16:51:36.211Z,57.20
2019-04-22T16:54:08.361Z,57.50
2019-04-22T16:56:41.667Z,57.70
2019-04-22T16:59:14.891Z,58.30
2019-04-22T17:02:06.302Z,58.60
2019-04-22T17:04:57.758Z,59.10
2019-04-22T17:07:29.896Z,59.20
2019-04-22T17:10:01.905Z,59.60
2019-04-22T17:12:44.293Z,59.70
2019-04-22T17:15:12.178Z,59.20
2019-04-22T17:17:43.251Z,59.70
2019-04-22T17:20:15.472Z,60.00
2019-04-22T17:22:43.774Z,60.40
2019-04-22T17:25:16.294Z,60.10
2019-04-22T17:30:18.064Z,60.60
2019-04-22T17:32:48.470Z,61.20
2019-04-22T17:35:17.847Z,61.00
2019-04-22T17:38:09.225Z,61.40
2019-04-22T17:40:44.842Z,62.10
2019-04-22T17:43:36.571Z,62.90
2019-04-22T17:46:12.062Z,63.20
2019-04-22T17:51:26.926Z,63.60
2019-04-22T17:56:20.617Z,64.90
2019-04-22T18:01:25.243Z,65.20
2019-04-22T18:03:42.357Z,65.60
2019-04-22T18:06:39.221Z,65.80
2019-04-22T18:09:01.779Z,66.10
2019-04-22T18:11:45.971Z,66.50
2019-04-22T18:14:35.980Z,66.90
2019-04-22T18:19:49.170Z,67.70
2019-04-22T18:22:27.369Z,67.60
2019-04-22T18:25:07.707Z,67.70
2019-04-22T18:27:56.884Z,68.00
2019-04-22T18:30:18.031Z,67.90
2019-04-22T18:35:26.945Z,68.00
2019-04-22T18:38:04.680Z,67.80
2019-04-22T18:40:30.809Z,67.30
2019-04-22T18:43:06.287Z,67.60
2019-04-22T18:45:39.619Z,66.90
2019-04-22T18:47:58.633Z,66.30
2019-04-22T18:50:41.438Z,66.10
2019-04-22T18:53:23.364Z,66.20
2019-04-22T18:56:09.747Z,66.40
2019-04-22T18:58:33.769Z,66.90
2019-04-22T19:00:48.228Z,67.10
2019-04-22T19:06:20.063Z,67.40
2019-04-22T19:08:36.803Z,67.80
2019-04-22T19:11:12.655Z,68.00
2019-04-22T19:14:00.724Z,68.20
2019-04-22T19:18:50.220Z,68.30
2019-04-22T19:21:13.454Z,68.10
2019-04-22T19:23:45.207Z,68.30
2019-04-22T19:28:45.222Z,68.70
2019-04-22T19:31:19.407Z,68.90
2019-04-22T19:33:46.239Z,69.10
2019-04-22T19:36:22.710Z,69.60
2019-04-22T19:38:48.730Z,70.10
2019-04-22T19:41:25.660Z,70.30
2019-04-22T19:46:19.472Z,71.00
2019-04-22T19:49:00.307Z,71.30
2019-04-22T19:51:28.046Z,71.60
2019-04-22T19:53:56.070Z,72.00
2019-04-22T19:56:21.478Z,72.50
2019-04-22T19:58:53.517Z,73.00
2019-04-22T20:01:28.998Z,73.10
2019-04-22T20:06:38.131Z,74.00
2019-04-22T20:09:13.553Z,74.60
2019-04-22T20:11:41.762Z,74.90
2019-04-22T20:14:12.612Z,75.10
2019-04-22T20:16:37.405Z,75.50
2019-04-22T20:19:19.112Z,76.10
2019-04-22T20:21:46.571Z,76.50
2019-04-22T20:26:50.106Z,76.90
2019-04-22T20:29:21.045Z,77.30
2019-04-22T20:31:49.730Z,77.40
2019-04-22T20:34:28.302Z,77.20
2019-04-22T20:37:10.220Z,77.30
2019-04-22T20:39:34.229Z,77.00
2019-04-22T20:42:18.053Z,77.30
2019-04-22T20:44:41.048Z,77.30
2019-04-22T20:47:03.158Z,77.20
2019-04-22T20:49:38.266Z,77.20
2019-04-22T20:52:11.434Z,76.90
2019-04-22T20:54:37.344Z,77.30
2019-04-22T20:59:32.930Z,76.80
2019-04-22T21:02:05.161Z,77.00
2019-04-22T21:04:28.551Z,77.10
2019-04-22T21:07:05.171Z,76.70
2019-04-22T21:12:05.032Z,76.30
2019-04-22T21:14:41.455Z,76.80
2019-04-22T21:17:13.826Z,76.80
2019-04-22T21:19:54.685Z,77.20
2019-04-22T21:22:22.778Z,77.30
2019-04-22T21:24:47.479Z,77.30
2019-04-22T21:27:25.484Z,77.40
2019-04-22T21:29:48.334Z,77.50
2019-04-22T21:32:23.547Z,77.70
2019-04-22T21:35:03.889Z,77.70
2019-04-22T21:37:34.694Z,78.00
2019-04-22T21:39:51.841Z,77.90
2019-04-22T21:42:39.394Z,78.30
2019-04-22T21:44:58.643Z,78.90
2019-04-22T21:47:44.790Z,79.40
2019-04-22T21:50:28.311Z,79.80
2019-04-22T21:52:42.605Z,80.00
2019-04-22T21:55:16.476Z,80.20
2019-04-22T21:58:04.822Z,80.70
2019-04-22T22:00:43.191Z,81.10
2019-04-22T22:03:13.059Z,81.60
2019-04-22T22:05:34.187Z,81.90
2019-04-22T22:08:23.469Z,82.10
2019-04-22T22:10:56.950Z,82.60
2019-04-22T22:13:22.758Z,82.80
2019-04-22T22:15:51.080Z,82.90
2019-04-22T22:18:21.362Z,83.10
2019-04-22T22:21:19.139Z,83.60
2019-04-22T22:23:57.723Z,83.70
2019-04-22T22:25:59.603Z,84.20
2019-04-22T22:28:51.525Z,84.90
2019-04-22T22:31:15.496Z,85.30
2019-04-22T22:33:45.118Z,86.00
2019-04-22T22:36:05.085Z,86.50
2019-04-22T22:38:35.170Z,86.60
2019-04-22T22:43:29.694Z,87.10
2019-04-22T22:46:09.429Z,87.10
2019-04-22T22:51:42.508Z,87.00
2019-04-22T22:54:23.685Z,86.80
2019-04-22T22:59:29.997Z,86.60
2019-04-22T23:01:54.159Z,86.30
2019-04-22T23:04:34.233Z,86.30
2019-04-22T23:07:06.658Z,86.20
2019-04-22T23:09:30.913Z,86.10
2019-04-22T23:12:10.367Z,86.60
2019-04-22T23:14:37.036Z,86.40
2019-04-22T23:16:55.064Z,86.10
2019-04-22T23:19:19.938Z,86.30
2019-04-22T23:21:54.396Z,86.00
2019-04-22T23:24:54.357Z,86.20
2019-04-22T23:27:34.577Z,85.90
2019-04-22T23:30:12.042Z,85.80
2019-04-22T23:32:41.193Z,85.60
2019-04-22T23:35:33.840Z,85.40
2019-04-22T23:38:08.108Z,85.10
2019-04-22T23:40:38.519Z,85.10
2019-04-22T23:43:15.320Z,85.00
2019-04-22T23:45:46.603Z,84.90
2019-04-22T23:48:12.835Z,84.90
2019-04-22T23:50:50.848Z,84.80
2019-04-22T23:53:55.852Z,84.80
2019-04-22T23:56:04.320Z,85.00
2019-04-22T23:59:04.748Z,84.70
